Time;durP1;ratioP1;P1;durP2;ratioP2;P2;SDS_P1;SDS_P2;PMS_P1;PMS_P2;Temp;Humidity;BMP_temperature;BMP_pressure;BME280_temperature;BME280_humidity;BME280_pressure;Samples;Min_cycle;Max_cycle;Signal;HPM_P1;HPM_P2
2022/03/18 00:00:47;;;;;;;28.48;19.77;;;15.50;64.70;;;;;;5094462;28;20040;-73
2022/03/18 00:03:13;;;;;;;24.08;18.67;;;15.50;64.50;;;;;;5094456;28;20027;-73
2022/03/18 00:05:39;;;;;;;24.75;18.73;;;15.50;64.60;;;;;;5094657;28;20031;-74
2022/03/18 00:08:05;;;;;;;29.20;18.30;;;15.50;64.70;;;;;;5094387;28;20024;-73
2022/03/18 00:10:31;;;;;;;25.13;18.02;;;15.50;64.90;;;;;;5094545;28;20028;-75
2022/03/18 00:12:58;;;;;;;25.25;17.88;;;15.50;65.00;;;;;;5094379;28;20026;-74
2022/03/18 00:15:24;;;;;;;27.48;18.98;;;15.50;64.80;;;;;;5094258;28;20020;-74
2022/03/18 00:17:53;;;;;;;25.85;18.20;;;15.50;64.70;;;;;;5094307;28;20031;-73
2022/03/18 00:20:20;;;;;;;21.15;17.42;;;15.50;64.90;;;;;;5092978;28;20024;-72
2022/03/18 00:22:46;;;;;;;25.58;18.35;;;15.50;65.00;;;;;;5094401;28;20030;-71
2022/03/18 00:25:13;;;;;;;24.20;17.30;;;15.40;65.00;;;;;;5094248;28;20077;-74
2022/03/18 00:27:42;;;;;;;25.55;16.98;;;15.40;65.30;;;;;;5094236;28;20028;-73
2022/03/18 00:30:09;;;;;;;25.95;17.17;;;15.50;65.50;;;;;;5094034;28;20107;-72
2022/03/18 00:32:38;;;;;;;29.80;18.58;;;15.50;65.60;;;;;;5094050;28;20024;-73
2022/03/18 00:35:05;;;;;;;24.48;17.70;;;15.50;65.70;;;;;;5094019;28;20054;-72
2022/03/18 00:37:31;;;;;;;22.60;16.70;;;15.50;65.90;;;;;;5093835;28;20020;-73
2022/03/18 00:39:57;;;;;;;24.63;17.48;;;15.50;65.60;;;;;;5093673;28;20028;-73
2022/03/18 00:42:22;;;;;;;24.15;17.23;;;15.50;65.90;;;;;;5093874;28;20027;-73
2022/03/18 00:44:48;;;;;;;22.73;16.60;;;15.50;66.20;;;;;;5092399;28;20085;-72
2022/03/18 00:52:42;;;;;;;21.85;15.70;;;15.40;66.50;;;;;;5093812;28;20039;-72
2022/03/18 00:55:09;;;;;;;25.35;15.63;;;15.40;66.50;;;;;;5093469;28;20028;-72
2022/03/18 00:57:35;;;;;;;25.45;15.57;;;15.40;66.70;;;;;;5092221;28;20028;-71
2022/03/18 01:00:01;;;;;;;22.17;15.68;;;15.40;66.80;;;;;;5093251;28;20420;-74
2022/03/18 01:02:27;;;;;;;24.48;16.25;;;15.30;66.80;;;;;;5093380;28;20495;-73
2022/03/18 01:04:52;;;;;;;24.92;16.80;;;15.30;67.00;;;;;;5093344;28;20036;-72
2022/03/18 01:07:18;;;;;;;26.92;16.83;;;15.20;67.00;;;;;;5093387;28;20414;-72
2022/03/18 01:09:44;;;;;;;22.70;16.95;;;15.30;67.20;;;;;;5093326;28;20054;-72
2022/03/18 01:12:10;;;;;;;28.65;18.63;;;15.20;66.90;;;;;;5092128;28;20048;-72
2022/03/18 01:14:36;;;;;;;24.65;17.15;;;15.30;67.30;;;;;;5093463;28;20518;-71
2022/03/18 01:17:02;;;;;;;25.08;17.15;;;15.30;67.00;;;;;;5092107;28;20107;-72
2022/03/18 01:19:28;;;;;;;24.40;16.95;;;15.30;66.90;;;;;;5093033;28;20526;-72
2022/03/18 01:21:53;;;;;;;23.38;16.80;;;15.30;67.10;;;;;;5093133;28;20100;-73
2022/03/18 01:24:19;;;;;;;23.58;17.92;;;15.30;67.20;;;;;;5093102;28;20032;-72
2022/03/18 01:26:47;;;;;;;25.52;17.50;;;15.30;67.10;;;;;;5093053;28;20031;-74
2022/03/18 01:29:13;;;;;;;21.48;16.95;;;15.20;67.10;;;;;;5093148;28;20495;-73
2022/03/18 01:31:39;;;;;;;24.52;18.58;;;15.20;67.20;;;;;;5093099;28;20107;-72
2022/03/18 01:34:05;;;;;;;28.08;18.52;;;15.20;67.00;;;;;;5092939;28;20526;-72
2022/03/18 01:36:31;;;;;;;33.45;21.17;;;15.20;67.00;;;;;;5093042;28;20024;-73
2022/03/18 01:38:56;;;;;;;27.58;18.95;;;15.10;66.80;;;;;;5092520;28;20495;-74
2022/03/18 01:41:22;;;;;;;27.17;18.83;;;15.20;66.80;;;;;;5093038;28;20568;-73
2022/03/18 01:43:48;;;;;;;29.30;19.48;;;15.10;66.50;;;;;;5093074;28;20027;-72
2022/03/18 01:46:16;;;;;;;30.13;18.52;;;15.10;66.10;;;;;;5093086;28;20473;-74
2022/03/18 01:48:42;;;;;;;31.15;18.33;;;15.10;66.00;;;;;;5092832;28;20024;-73
2022/03/18 01:51:09;;;;;;;30.20;18.83;;;15.10;65.80;;;;;;5091563;28;20036;-73
2022/03/18 01:53:36;;;;;;;37.25;18.35;;;15.10;65.50;;;;;;5093002;28;20020;-74
2022/03/18 01:56:02;;;;;;;35.90;18.67;;;15.10;65.40;;;;;;5092886;28;20020;-74
2022/03/18 01:58:28;;;;;;;27.45;16.00;;;15.10;65.20;;;;;;5092825;28;20048;-75
2022/03/18 02:00:53;;;;;;;37.25;16.98;;;15.10;64.80;;;;;;5092836;28;20055;-73
2022/03/18 02:03:20;;;;;;;27.08;15.82;;;15.00;64.70;;;;;;5092593;28;20380;-72
2022/03/18 02:05:46;;;;;;;27.40;16.25;;;15.00;64.50;;;;;;5093055;28;20040;-74
2022/03/18 02:08:16;;;;;;;30.90;16.17;;;14.90;64.30;;;;;;5092761;28;20103;-73
2022/03/18 02:10:42;;;;;;;30.67;15.32;;;14.90;64.10;;;;;;5092847;28;20028;-72
2022/03/18 02:13:08;;;;;;;30.92;14.18;;;14.80;64.10;;;;;;5092766;28;20021;-72
2022/03/18 02:15:34;;;;;;;35.45;15.32;;;14.70;63.70;;;;;;5092756;28;20085;-71
2022/03/18 02:17:59;;;;;;;33.55;15.27;;;14.70;63.90;;;;;;5092680;28;20012;-73
2022/03/18 02:20:25;;;;;;;28.45;13.70;;;14.70;63.60;;;;;;5092796;28;20592;-72
2022/03/18 02:22:51;;;;;;;22.35;13.80;;;14.70;63.40;;;;;;5091634;28;20024;-72
2022/03/18 02:25:17;;;;;;;31.50;13.88;;;14.60;63.10;;;;;;5092599;28;20040;-71
2022/03/18 02:28:01;;;;;;;27.05;12.80;;;14.50;62.80;;;;;;5092535;28;20031;-72
2022/03/18 02:30:28;;;;;;;27.67;12.50;;;14.40;62.70;;;;;;5092409;28;20413;-71
2022/03/18 02:32:55;;;;;;;25.95;12.40;;;14.40;62.70;;;;;;5092457;28;20492;-71
2022/03/18 02:35:21;;;;;;;32.28;12.88;;;14.40;62.40;;;;;;5092569;28;20485;-72
2022/03/18 02:37:47;;;;;;;22.65;12.43;;;14.30;62.20;;;;;;5092503;28;20481;-71
2022/03/18 02:40:15;;;;;;;28.65;12.63;;;14.20;62.30;;;;;;5092434;28;20054;-72
2022/03/18 02:42:41;;;;;;;30.70;12.85;;;14.30;62.30;;;;;;5092458;28;20024;-72
2022/03/18 02:45:08;;;;;;;22.35;11.88;;;14.30;62.30;;;;;;5092344;28;20062;-74
2022/03/18 02:47:34;;;;;;;33.90;13.27;;;14.40;62.30;;;;;;5092605;28;20413;-72
2022/03/18 02:50:00;;;;;;;28.15;11.73;;;14.40;61.90;;;;;;5093759;28;20019;-70
2022/03/18 02:52:26;;;;;;;28.10;12.48;;;14.40;62.00;;;;;;5095902;28;20473;-72
2022/03/18 02:54:52;;;;;;;22.20;12.57;;;14.40;62.10;;;;;;5095855;28;20085;-71
2022/03/18 02:57:18;;;;;;;22.27;12.00;;;14.40;62.10;;;;;;5095729;28;20024;-71
2022/03/18 02:59:44;;;;;;;22.58;11.57;;;14.40;61.90;;;;;;5095599;28;20044;-72
2022/03/18 03:02:12;;;;;;;20.85;10.95;;;14.50;62.20;;;;;;5094502;28;20362;-73
2022/03/18 03:07:58;;;;;;;27.25;11.90;;;14.50;62.00;;;;;;5094338;28;20487;-71
2022/03/18 03:10:08;;;;;;;25.63;12.38;;;14.40;61.60;;;;;;5095403;28;20032;-71
2022/03/18 03:12:34;;;;;;;25.90;12.25;;;14.30;61.60;;;;;;5095518;28;20020;-73
2022/03/18 03:14:59;;;;;;;26.58;11.82;;;14.30;61.80;;;;;;5095516;28;20035;-72
2022/03/18 03:17:25;;;;;;;23.50;11.60;;;14.30;61.60;;;;;;5095515;28;20364;-72
2022/03/18 03:19:51;;;;;;;25.88;11.50;;;14.30;61.40;;;;;;5095397;28;20031;-71
2022/03/18 03:22:16;;;;;;;26.25;11.23;;;14.30;61.40;;;;;;5095404;28;20105;-71
2022/03/18 03:24:42;;;;;;;29.50;11.20;;;14.30;61.40;;;;;;5095233;28;20404;-72
2022/03/18 03:27:08;;;;;;;28.48;10.68;;;14.30;61.20;;;;;;5095099;28;20457;-72
2022/03/18 03:29:33;;;;;;;29.92;11.02;;;14.30;61.40;;;;;;5095062;28;20032;-71
2022/03/18 03:31:59;;;;;;;24.73;11.30;;;14.30;61.20;;;;;;5095335;28;20020;-71
2022/03/18 03:34:25;;;;;;;28.15;11.32;;;14.30;61.10;;;;;;5095108;28;20028;-71
2022/03/18 03:36:51;;;;;;;25.48;9.95;;;14.20;60.90;;;;;;5095024;28;20384;-71
2022/03/18 03:39:17;;;;;;;24.20;12.13;;;14.20;60.90;;;;;;5094957;28;20477;-71
2022/03/18 03:41:42;;;;;;;27.33;10.82;;;14.20;61.00;;;;;;5095127;28;20095;-77
2022/03/18 03:44:09;;;;;;;17.67;10.25;;;14.20;60.80;;;;;;5094972;28;20038;-74
2022/03/18 03:46:34;;;;;;;26.15;11.13;;;14.20;61.00;;;;;;5095018;28;20534;-72
2022/03/18 03:49:00;;;;;;;23.90;10.38;;;14.30;60.70;;;;;;5094819;28;20020;-72
2022/03/18 03:51:26;;;;;;;32.75;10.88;;;14.20;60.40;;;;;;5094797;28;20061;-73
2022/03/18 03:53:52;;;;;;;25.95;10.80;;;14.20;60.50;;;;;;5094732;28;20031;-72
2022/03/18 03:56:17;;;;;;;31.20;11.27;;;14.10;60.40;;;;;;5094747;28;20070;-72
2022/03/18 03:58:43;;;;;;;27.35;11.23;;;14.10;60.40;;;;;;5094416;28;20055;-72
2022/03/18 04:01:09;;;;;;;22.58;10.73;;;14.10;60.70;;;;;;5093159;28;20538;-72
2022/03/18 04:03:35;;;;;;;26.38;10.90;;;14.10;60.60;;;;;;5094596;28;20047;-72
2022/03/18 04:06:01;;;;;;;25.73;10.70;;;14.10;60.50;;;;;;5094659;28;20469;-72
2022/03/18 04:08:27;;;;;;;24.30;10.65;;;14.10;60.40;;;;;;5094458;28;20028;-73
2022/03/18 04:10:54;;;;;;;27.00;10.52;;;14.10;60.60;;;;;;5094571;28;20060;-74
2022/03/18 04:13:20;;;;;;;24.02;11.25;;;14.10;60.60;;;;;;5094384;28;20465;-74
2022/03/18 04:15:48;;;;;;;32.40;11.35;;;14.10;60.70;;;;;;5094485;28;20503;-71
2022/03/18 04:18:14;;;;;;;23.40;12.50;;;14.20;60.40;;;;;;5094435;28;20028;-72
2022/03/18 04:20:39;;;;;;;24.98;13.65;;;14.20;60.10;;;;;;5076128;28;20549;-71
2022/03/18 04:23:05;;;;;;;29.40;13.68;;;14.20;60.20;;;;;;5094467;28;20024;-71
2022/03/18 04:25:31;;;;;;;29.70;12.70;;;14.20;60.10;;;;;;5094161;28;20047;-74
2022/03/18 04:27:58;;;;;;;29.08;12.35;;;14.20;60.00;;;;;;5094181;28;20493;-72
2022/03/18 04:30:23;;;;;;;29.90;12.35;;;14.20;59.80;;;;;;5092890;28;20028;-72
2022/03/18 04:32:49;;;;;;;30.92;11.70;;;14.20;59.60;;;;;;5092924;28;20095;-71
2022/03/18 04:35:15;;;;;;;28.77;12.48;;;14.20;59.40;;;;;;5094032;28;20477;-74
2022/03/18 04:37:42;;;;;;;25.70;10.35;;;14.10;59.30;;;;;;5094171;28;20055;-72
2022/03/18 04:40:12;;;;;;;28.50;11.18;;;14.10;59.20;;;;;;5094046;28;20366;-72
2022/03/18 04:42:39;;;;;;;24.70;10.60;;;14.20;59.10;;;;;;5093935;28;20035;-73
2022/03/18 04:45:06;;;;;;;21.98;9.75;;;14.10;59.60;;;;;;5092500;28;20040;-72
2022/03/18 04:47:33;;;;;;;27.67;10.25;;;14.20;58.80;;;;;;5093730;28;20077;-74
2022/03/18 04:50:00;;;;;;;31.08;10.10;;;14.20;58.80;;;;;;5092339;28;20039;-73
2022/03/18 04:52:26;;;;;;;34.30;10.82;;;14.20;58.80;;;;;;5093829;28;20040;-72
2022/03/18 04:54:52;;;;;;;22.02;9.85;;;14.20;58.30;;;;;;5093838;28;20427;-72
2022/03/18 04:57:20;;;;;;;24.13;9.50;;;14.20;58.20;;;;;;5093658;28;20024;-72
2022/03/18 04:59:55;;;;;;;27.52;9.45;;;14.20;57.90;;;;;;5093746;28;20075;-74
2022/03/18 05:02:21;;;;;;;26.05;10.52;;;14.30;58.30;;;;;;5093800;28;20032;-74
2022/03/18 05:04:48;;;;;;;27.45;12.90;;;14.30;57.70;;;;;;5093409;28;20039;-71
2022/03/18 05:07:15;;;;;;;31.00;14.68;;;14.20;56.50;;;;;;5093634;28;20393;-71
2022/03/18 05:09:41;;;;;;;31.20;14.27;;;14.10;56.10;;;;;;5093339;28;20107;-72
2022/03/18 05:12:12;;;;;;;30.95;13.00;;;14.10;56.40;;;;;;5092710;28;20024;-72
2022/03/18 05:14:39;;;;;;;27.10;12.55;;;14.10;55.90;;;;;;5093450;28;20027;-72
2022/03/18 05:17:06;;;;;;;26.35;11.48;;;14.10;56.00;;;;;;5093181;28;20035;-73
2022/03/18 05:19:32;;;;;;;33.88;13.20;;;14.10;56.10;;;;;;5093135;28;20028;-73
2022/03/18 05:21:58;;;;;;;27.50;14.48;;;14.00;56.00;;;;;;5093310;28;20031;-72
2022/03/18 05:24:26;;;;;;;34.70;13.10;;;14.00;55.80;;;;;;5092962;28;20057;-74
2022/03/18 05:26:52;;;;;;;31.67;14.07;;;14.00;55.80;;;;;;5092858;28;20048;-74
2022/03/18 05:29:18;;;;;;;28.60;13.27;;;14.00;55.80;;;;;;5092649;28;20538;-74
2022/03/18 05:31:46;;;;;;;27.48;13.93;;;14.00;55.70;;;;;;5091264;28;20042;-72
2022/03/18 05:34:12;;;;;;;35.58;13.70;;;14.00;55.70;;;;;;5092745;28;20112;-72
2022/03/18 05:36:39;;;;;;;37.30;14.10;;;14.00;55.70;;;;;;5092654;28;20127;-75
2022/03/18 05:39:05;;;;;;;28.27;12.73;;;14.00;55.70;;;;;;5092760;28;20031;-72
2022/03/18 05:41:31;;;;;;;24.45;12.50;;;14.00;55.60;;;;;;5092825;28;20020;-73
2022/03/18 05:43:57;;;;;;;26.63;10.75;;;14.10;55.80;;;;;;5092693;28;20107;-72
2022/03/18 05:46:23;;;;;;;31.25;10.98;;;14.10;55.40;;;;;;5092864;28;20052;-72
2022/03/18 05:48:48;;;;;;;24.77;11.52;;;14.00;55.50;;;;;;5092624;28;20052;-72
2022/03/18 05:51:14;;;;;;;27.63;11.02;;;14.00;55.70;;;;;;5092780;28;20126;-72
2022/03/18 05:53:40;;;;;;;28.58;10.98;;;14.00;55.50;;;;;;5092621;28;20475;-74
2022/03/18 05:58:50;;;;;;;;;;;14.00;56.10;;;;;;5093056;28;20150;-73
2022/03/18 06:01:16;;;;;;;23.92;9.80;;;14.00;56.50;;;;;;5092779;28;19957;-71
2022/03/18 06:03:42;;;;;;;27.45;11.02;;;14.00;56.30;;;;;;5092471;28;20024;-72
2022/03/18 06:06:08;;;;;;;25.73;10.18;;;14.10;56.00;;;;;;5092522;28;20028;-77
2022/03/18 06:14:02;;;;;;;;;;;14.10;55.80;;;;;;5093047;28;20035;-72
2022/03/18 06:16:28;;;;;;;29.40;10.75;;;14.00;56.00;;;;;;5092673;28;19991;-72
2022/03/18 06:18:54;;;;;;;23.92;10.93;;;14.00;55.90;;;;;;5092577;28;20048;-73
2022/03/18 06:21:23;;;;;;;26.73;11.40;;;14.10;55.60;;;;;;5092390;28;20020;-72
2022/03/18 06:23:49;;;;;;;27.33;11.13;;;14.20;55.70;;;;;;5093419;28;20086;-73
2022/03/18 06:26:14;;;;;;;26.10;11.43;;;14.30;55.50;;;;;;5095875;28;20028;-72
2022/03/18 06:28:40;;;;;;;21.60;10.68;;;14.30;55.30;;;;;;5095842;28;20408;-72
2022/03/18 06:31:06;;;;;;;26.80;11.40;;;14.30;54.80;;;;;;5096148;28;20067;-73
2022/03/18 06:33:33;;;;;;;28.58;12.18;;;14.40;55.50;;;;;;5096098;28;20434;-72
2022/03/18 06:35:59;;;;;;;29.15;11.20;;;14.50;54.70;;;;;;5096068;28;20043;-73
2022/03/18 06:38:25;;;;;;;26.95;11.77;;;14.50;54.60;;;;;;5096150;28;20055;-74
2022/03/18 06:40:50;;;;;;;27.42;11.38;;;14.50;54.20;;;;;;5091511;28;20025;-72
2022/03/18 06:43:17;;;;;;;33.08;12.35;;;14.60;54.30;;;;;;5057730;28;20086;-72
2022/03/18 06:45:43;;;;;;;30.02;11.70;;;14.60;54.30;;;;;;5075652;28;20055;-73
2022/03/18 06:48:08;;;;;;;28.55;11.82;;;14.70;54.00;;;;;;5074112;28;20027;-72
2022/03/18 06:50:34;;;;;;;26.75;11.65;;;14.70;53.80;;;;;;5075727;28;20470;-72
2022/03/18 06:53:00;;;;;;;34.20;11.88;;;14.70;53.80;;;;;;5084908;28;20020;-73
2022/03/18 06:55:26;;;;;;;26.67;11.32;;;14.70;53.40;;;;;;5075567;28;20036;-71
2022/03/18 06:57:52;;;;;;;24.15;10.63;;;14.70;53.50;;;;;;5075392;28;20031;-71
2022/03/18 07:00:18;;;;;;;27.20;11.02;;;14.70;53.50;;;;;;5080255;28;20127;-72
2022/03/18 07:02:43;;;;;;;23.48;11.57;;;14.80;53.60;;;;;;5075568;28;20024;-70
2022/03/18 07:05:09;;;;;;;27.27;11.27;;;14.90;53.90;;;;;;5075405;28;20473;-71
2022/03/18 07:07:35;;;;;;;27.05;11.35;;;14.90;53.80;;;;;;5075248;28;20051;-73
2022/03/18 07:10:00;;;;;;;22.65;10.88;;;15.00;53.50;;;;;;5087112;28;20028;-72
2022/03/18 07:12:27;;;;;;;33.65;12.30;;;15.10;53.10;;;;;;5095425;28;20028;-73
2022/03/18 07:14:53;;;;;;;25.85;10.73;;;15.20;52.80;;;;;;5093090;28;20028;-73
2022/03/18 07:20:03;;;;;;;26.83;10.57;;;15.50;53.00;;;;;;5080063;28;20048;-74
2022/03/18 07:22:29;;;;;;;29.40;10.48;;;15.50;52.20;;;;;;5075115;28;20039;-71
2022/03/18 07:24:55;;;;;;;27.63;10.80;;;15.60;52.80;;;;;;5083513;28;20393;-71
2022/03/18 07:27:20;;;;;;;26.42;10.50;;;15.60;52.50;;;;;;5092116;28;20145;-70
2022/03/18 07:29:46;;;;;;;30.88;10.85;;;15.70;52.30;;;;;;5091961;28;20024;-71
2022/03/18 07:32:12;;;;;;;32.47;11.77;;;15.80;52.40;;;;;;5079514;28;20037;-70
2022/03/18 07:34:37;;;;;;;27.60;11.15;;;16.00;52.20;;;;;;5074620;28;20032;-70
2022/03/18 07:37:03;;;;;;;24.85;10.60;;;16.10;51.30;;;;;;5074345;28;20055;-71
2022/03/18 07:39:29;;;;;;;39.83;12.13;;;16.20;51.10;;;;;;5074484;28;20070;-72
2022/03/18 07:41:55;;;;;;;30.83;11.25;;;16.40;51.00;;;;;;5074637;28;20025;-71
2022/03/18 07:44:20;;;;;;;22.95;10.88;;;16.40;50.70;;;;;;5074635;28;20032;-71
2022/03/18 07:46:46;;;;;;;28.98;11.65;;;16.50;50.70;;;;;;5074788;28;20360;-71
2022/03/18 07:49:13;;;;;;;38.15;11.40;;;16.70;51.00;;;;;;5076430;28;20086;-73
2022/03/18 07:51:39;;;;;;;29.70;11.35;;;16.80;50.60;;;;;;5074664;28;20023;-70
2022/03/18 07:54:04;;;;;;;28.80;11.95;;;16.90;50.90;;;;;;5074371;28;20472;-72
2022/03/18 07:56:30;;;;;;;34.95;11.30;;;17.00;50.60;;;;;;5074555;28;20024;-71
2022/03/18 07:58:56;;;;;;;23.45;11.18;;;17.10;50.70;;;;;;5079324;28;20040;-70
2022/03/18 08:01:21;;;;;;;26.40;11.05;;;17.10;50.60;;;;;;5072478;28;20420;-71
2022/03/18 08:03:47;;;;;;;42.47;21.55;;;17.10;50.40;;;;;;5074088;28;20028;-73
2022/03/18 08:06:14;;;;;;;23.35;11.82;;;17.20;50.60;;;;;;5073825;28;20028;-72
2022/03/18 08:08:40;;;;;;;25.50;11.55;;;17.20;50.50;;;;;;5071847;28;20024;-73
2022/03/18 08:11:06;;;;;;;27.13;11.07;;;17.20;50.80;;;;;;5073761;28;20040;-75
2022/03/18 08:13:32;;;;;;;27.50;11.75;;;17.20;50.80;;;;;;5072588;28;20077;-73
2022/03/18 08:15:57;;;;;;;26.80;11.00;;;17.10;51.40;;;;;;5073925;28;20060;-74
2022/03/18 08:18:24;;;;;;;27.98;11.40;;;17.10;51.70;;;;;;5073705;28;20123;-74
2022/03/18 08:20:51;;;;;;;24.73;11.20;;;17.10;51.80;;;;;;5073735;28;20397;-73
2022/03/18 08:23:17;;;;;;;28.20;11.35;;;17.20;52.20;;;;;;5074267;28;20024;-73
2022/03/18 08:25:43;;;;;;;28.25;11.57;;;17.20;52.00;;;;;;5073836;28;20062;-73
2022/03/18 08:28:08;;;;;;;28.15;11.88;;;17.20;51.60;;;;;;5072346;28;20115;-74
2022/03/18 08:30:35;;;;;;;60.75;29.42;;;17.20;51.40;;;;;;5073989;28;20079;-74
2022/03/18 08:33:02;;;;;;;35.70;15.25;;;17.20;51.30;;;;;;5073990;28;20028;-73
2022/03/18 08:35:28;;;;;;;33.53;12.68;;;17.30;51.10;;;;;;5073977;28;20505;-72
2022/03/18 08:37:57;;;;;;;31.40;12.20;;;17.30;51.10;;;;;;5073561;28;20028;-73
2022/03/18 08:40:24;;;;;;;25.20;11.85;;;17.40;51.00;;;;;;5073570;28;20024;-73
2022/03/18 08:42:51;;;;;;;31.15;11.05;;;17.40;51.20;;;;;;5073672;28;20044;-73
2022/03/18 08:45:17;;;;;;;30.02;11.32;;;17.30;51.40;;;;;;5073416;28;20036;-73
2022/03/18 08:47:43;;;;;;;25.00;10.43;;;17.40;51.40;;;;;;5072407;28;20021;-73
2022/03/18 08:50:10;;;;;;;29.77;10.88;;;17.50;51.40;;;;;;5071593;28;20039;-74
2022/03/18 08:52:36;;;;;;;30.88;10.95;;;17.50;51.40;;;;;;5072989;28;20446;-73
2022/03/18 08:55:02;;;;;;;28.10;11.77;;;17.60;51.70;;;;;;5073026;28;20021;-73
2022/03/18 08:57:28;;;;;;;38.15;12.98;;;17.70;51.90;;;;;;5072863;28;20029;-73
2022/03/18 08:59:56;;;;;;;24.27;11.25;;;17.80;51.80;;;;;;5071194;28;20155;-73
2022/03/18 09:02:21;;;;;;;29.70;10.95;;;17.90;51.90;;;;;;5072736;28;20040;-75
2022/03/18 09:04:48;;;;;;;30.10;11.77;;;18.00;52.10;;;;;;5073101;28;20037;-73
2022/03/18 09:07:14;;;;;;;28.35;11.73;;;18.00;52.60;;;;;;5072842;28;20048;-72
2022/03/18 09:09:40;;;;;;;24.55;11.10;;;18.00;52.80;;;;;;5071577;28;20020;-73
2022/03/18 09:12:06;;;;;;;31.85;11.20;;;18.10;52.90;;;;;;5072691;28;20050;-72
2022/03/18 09:14:32;;;;;;;38.03;11.90;;;18.20;53.00;;;;;;5072543;28;20047;-73
2022/03/18 09:16:58;;;;;;;30.85;12.60;;;18.30;53.30;;;;;;5073039;28;20024;-74
2022/03/18 09:19:23;;;;;;;24.75;11.07;;;18.30;53.40;;;;;;5072767;28;20119;-73
2022/03/18 09:21:50;;;;;;;31.73;11.05;;;18.40;53.20;;;;;;5072969;28;20028;-75
2022/03/18 09:24:16;;;;;;;22.88;11.80;;;18.40;53.00;;;;;;5073006;28;20110;-72
2022/03/18 09:26:42;;;;;;;28.15;13.07;;;18.50;53.50;;;;;;5072373;28;20466;-73
2022/03/18 09:29:08;;;;;;;26.50;12.32;;;18.60;53.20;;;;;;5072498;28;20078;-72
2022/03/18 09:31:33;;;;;;;28.42;12.05;;;18.60;53.20;;;;;;5072748;28;20017;-75
2022/03/18 09:33:59;;;;;;;28.75;11.57;;;18.70;53.20;;;;;;5072727;28;20099;-72
2022/03/18 09:36:25;;;;;;;24.92;11.93;;;18.70;53.30;;;;;;5071018;28;20028;-72
2022/03/18 09:38:51;;;;;;;31.70;12.25;;;18.70;53.20;;;;;;5081675;22;20390;-73
2022/03/18 09:41:18;;;;;;;34.60;12.48;;;18.80;53.50;;;;;;5052969;28;20522;-72
2022/03/18 09:43:44;;;;;;;28.77;12.35;;;18.80;53.60;;;;;;5067976;28;20033;-74
2022/03/18 09:46:12;;;;;;;27.58;12.73;;;18.90;53.80;;;;;;5052978;28;20160;-71
2022/03/18 09:48:39;;;;;;;31.48;11.85;;;18.90;54.00;;;;;;5052369;28;20101;-72
2022/03/18 09:51:05;;;;;;;21.33;12.95;;;18.90;53.90;;;;;;5052337;28;20037;-72
2022/03/18 09:53:34;;;;;;;34.17;13.43;;;19.00;54.10;;;;;;5052561;28;20025;-71
2022/03/18 09:56:00;;;;;;;27.65;12.15;;;19.00;54.00;;;;;;5052410;28;20025;-72
2022/03/18 09:58:27;;;;;;;34.83;17.92;;;19.10;54.20;;;;;;5053140;28;20048;-71
2022/03/18 10:01:01;;;;;;;24.15;14.82;;;19.10;54.20;;;;;;5055105;28;20033;-71
2022/03/18 10:03:41;;;;;;;33.33;11.55;;;19.20;53.20;;;;;;5056349;28;20107;-72
2022/03/18 10:06:10;;;;;;;25.48;12.63;;;19.20;52.80;;;;;;5056313;28;20105;-72
2022/03/18 10:08:35;;;;;;;27.77;12.73;;;19.20;53.70;;;;;;5056124;28;20021;-72
2022/03/18 10:11:23;;;;;;;34.85;12.10;;;19.20;53.70;;;;;;5056359;28;20037;-72
2022/03/18 10:14:03;;;;;;;28.70;13.98;;;19.20;52.40;;;;;;5056103;28;20102;-72
2022/03/18 10:16:46;;;;;;;27.70;12.45;;;19.30;52.70;;;;;;5056163;28;20024;-73
2022/03/18 10:19:14;;;;;;;28.02;11.35;;;19.40;52.70;;;;;;5055952;28;20025;-73
2022/03/18 10:22:00;;;;;;;35.70;13.13;;;19.40;53.40;;;;;;5056048;28;20322;-73
2022/03/18 10:24:37;;;;;;;28.20;11.88;;;19.60;53.50;;;;;;5055915;28;20044;-71
2022/03/18 10:27:16;;;;;;;32.70;11.63;;;19.80;53.30;;;;;;5054575;28;20054;-71
2022/03/18 10:29:46;;;;;;;27.88;11.25;;;19.80;52.60;;;;;;5056031;28;20520;-72
2022/03/18 10:32:13;;;;;;;28.85;11.55;;;19.80;52.00;;;;;;5056291;28;20104;-72
2022/03/18 10:37:51;;;;;;;35.63;11.27;;;19.70;52.10;;;;;;5055058;28;20551;-72
2022/03/18 10:40:31;;;;;;;23.58;10.73;;;19.60;50.40;;;;;;5054798;28;20140;-71
2022/03/18 10:42:58;;;;;;;23.73;10.32;;;19.50;51.80;;;;;;5055095;28;20060;-72
2022/03/18 10:45:24;;;;;;;23.35;10.85;;;19.50;52.00;;;;;;5055291;28;20036;-71
2022/03/18 10:47:50;;;;;;;33.08;11.45;;;19.60;51.80;;;;;;5055200;28;20017;-72
2022/03/18 10:50:29;;;;;;;29.15;11.43;;;19.70;51.50;;;;;;5055243;28;20107;-70
2022/03/18 10:53:02;;;;;;;26.08;11.30;;;19.80;51.40;;;;;;5053582;28;20029;-73
2022/03/18 10:55:35;;;;;;;31.35;12.02;;;19.90;49.60;;;;;;5054888;28;20470;-72
2022/03/18 10:58:10;;;;;;;31.75;10.80;;;19.90;50.50;;;;;;5054972;28;20025;-71
2022/03/18 11:00:38;;;;;;;39.65;11.55;;;19.90;48.40;;;;;;5054883;28;20025;-71
2022/03/18 11:03:05;;;;;;;36.47;11.43;;;19.90;49.30;;;;;;5054635;28;20032;-72
2022/03/18 11:05:35;;;;;;;34.58;10.82;;;19.90;48.90;;;;;;5054710;28;20036;-72
2022/03/18 11:08:02;;;;;;;27.17;10.88;;;20.00;48.20;;;;;;5054811;28;20025;-73
2022/03/18 11:13:15;;;;;;;23.20;10.05;;;20.10;46.90;;;;;;5054966;28;20036;-71
2022/03/18 11:15:43;;;;;;;32.88;10.30;;;20.20;46.80;;;;;;5054720;28;20113;-72
2022/03/18 11:18:13;;;;;;;33.03;10.10;;;20.30;47.00;;;;;;5054780;28;20131;-70
2022/03/18 11:20:45;;;;;;;31.98;11.05;;;20.30;46.40;;;;;;5054631;28;20029;-71
2022/03/18 11:23:24;;;;;;;27.10;10.07;;;20.30;46.40;;;;;;5054796;28;20029;-72
2022/03/18 11:26:00;;;;;;;31.17;9.57;;;20.20;45.80;;;;;;5054585;28;20459;-71
2022/03/18 11:28:26;;;;;;;38.10;10.13;;;20.10;45.20;;;;;;5054460;28;20025;-74
2022/03/18 11:31:04;;;;;;;27.27;9.63;;;20.10;45.10;;;;;;5054578;28;20025;-70
2022/03/18 11:33:31;;;;;;;24.90;9.30;;;20.20;44.70;;;;;;5054742;28;20464;-71
2022/03/18 11:36:05;;;;;;;29.60;10.02;;;20.20;44.30;;;;;;5054679;28;20039;-72
2022/03/18 11:38:51;;;;;;;37.35;9.63;;;20.30;43.50;;;;;;5054039;28;20036;-72
2022/03/18 11:41:19;;;;;;;30.85;10.00;;;20.40;43.10;;;;;;5054791;28;20112;-72
2022/03/18 11:43:44;;;;;;;34.58;9.25;;;20.50;42.80;;;;;;5054242;28;20047;-72
2022/03/18 11:46:13;;;;;;;41.45;9.95;;;20.40;42.00;;;;;;5054311;28;20037;-70
2022/03/18 11:48:57;;;;;;;36.30;9.38;;;20.30;41.70;;;;;;5053990;28;20021;-72
2022/03/18 11:51:31;;;;;;;;;;;20.40;41.90;;;;;;5054708;28;20029;-72
2022/03/18 11:54:00;;;;;;;27.17;9.07;;;20.40;39.30;;;;;;5054360;28;19905;-74
2022/03/18 11:56:46;;;;;;;40.30;9.60;;;20.40;41.30;;;;;;5054198;28;20037;-72
2022/03/18 11:59:29;;;;;;;31.10;8.10;;;20.40;40.90;;;;;;5053967;28;20188;-71
2022/03/18 12:02:02;;;;;;;37.25;8.70;;;20.50;40.50;;;;;;5053944;28;20486;-72
2022/03/18 12:04:34;;;;;;;37.50;9.80;;;20.40;39.70;;;;;;5053676;28;20526;-71
2022/03/18 12:07:25;;;;;;;40.58;9.15;;;20.50;40.10;;;;;;5053508;28;20087;-72
2022/03/18 12:09:57;;;;;;;36.13;9.10;;;20.50;39.50;;;;;;5053856;28;20027;-72
2022/03/18 12:12:28;;;;;;;31.83;8.00;;;20.40;39.20;;;;;;5054183;28;20057;-73
2022/03/18 12:14:55;;;;;;;35.88;8.32;;;20.30;39.30;;;;;;5053845;28;20033;-72
2022/03/18 12:17:24;;;;;;;29.15;9.13;;;20.20;39.00;;;;;;5053932;28;20036;-72
2022/03/18 12:19:55;;;;;;;31.63;9.52;;;20.10;39.30;;;;;;5053420;28;20032;-71
2022/03/18 12:22:23;;;;;;;29.25;8.90;;;20.10;39.70;;;;;;5053413;28;20032;-72
2022/03/18 12:24:54;;;;;;;27.23;8.85;;;20.20;39.70;;;;;;5053902;28;20044;-71
2022/03/18 12:27:36;;;;;;;27.65;8.45;;;20.20;40.10;;;;;;5053407;28;20516;-72
2022/03/18 12:30:04;;;;;;;30.42;8.88;;;20.20;39.60;;;;;;5053719;28;20528;-73
2022/03/18 12:32:30;;;;;;;30.67;9.23;;;20.20;40.20;;;;;;5053750;28;20025;-72
2022/03/18 12:34:57;;;;;;;36.40;9.57;;;20.20;39.80;;;;;;5053869;28;20021;-71
2022/03/18 12:37:27;;;;;;;29.75;9.27;;;20.10;40.00;;;;;;5053183;28;20067;-72
2022/03/18 12:40:29;;;;;;;29.85;9.45;;;19.90;40.10;;;;;;5052930;28;20063;-71
2022/03/18 12:42:57;;;;;;;31.35;8.82;;;19.90;40.70;;;;;;4992222;28;20042;-72
2022/03/18 12:45:33;;;;;;;28.35;8.88;;;19.80;40.90;;;;;;5042022;28;20055;-73
2022/03/18 12:48:07;;;;;;;30.08;9.15;;;19.80;40.60;;;;;;5062205;28;20021;-72
2022/03/18 12:50:39;;;;;;;24.65;8.80;;;19.70;40.30;;;;;;5066883;28;20032;-71
2022/03/18 12:53:26;;;;;;;30.52;9.52;;;19.70;40.60;;;;;;5054812;28;20036;-72
2022/03/18 12:55:53;;;;;;;39.92;9.07;;;19.60;40.20;;;;;;5053629;28;20017;-72